createdAt,value
2019-02-15T00:01:49.676Z,83.50
2019-02-15T00:04:15.693Z,84.10
2019-02-15T00:06:41.723Z,84.90
2019-02-15T00:09:07.741Z,84.00
2019-02-15T00:11:33.772Z,84.70
2019-02-15T00:13:59.783Z,85.00
2019-02-15T00:16:25.834Z,85.80
2019-02-15T00:18:56.865Z,86.90
2019-02-15T00:21:24.307Z,86.80
2019-02-15T00:23:50.323Z,86.50
2019-02-15T00:26:16.747Z,86.80
2019-02-15T00:28:42.971Z,87.20
2019-02-15T00:31:10.915Z,87.20
2019-02-15T00:33:36.960Z,88.20
2019-02-15T00:36:02.959Z,88.70
2019-02-15T00:38:29.052Z,88.50
2019-02-15T00:40:55.073Z,88.40
2019-02-15T00:43:22.487Z,89.00
2019-02-15T00:46:07.146Z,89.80
2019-02-15T00:48:33.179Z,89.50
2019-02-15T00:51:06.827Z,89.70
2019-02-15T00:53:34.763Z,90.00
2019-02-15T00:56:11.616Z,90.30
2019-02-15T00:58:39.750Z,90.20
2019-02-15T01:01:10.427Z,90.30
2019-02-15T01:03:41.123Z,90.40
2019-02-15T01:06:14.903Z,90.50
2019-02-15T01:08:42.841Z,90.60
2019-02-15T01:11:19.371Z,90.90
2019-02-15T01:13:45.403Z,91.10
2019-02-15T01:16:17.283Z,91.10
2019-02-15T01:18:43.324Z,91.20
2019-02-15T01:21:09.423Z,91.40
2019-02-15T01:23:35.464Z,91.10
2019-02-15T01:26:05.895Z,91.30
2019-02-15T01:28:33.827Z,91.20
2019-02-15T01:31:18.253Z,91.10
2019-02-15T01:34:02.932Z,91.30
2019-02-15T01:36:30.851Z,91.10
2019-02-15T01:39:13.886Z,91.10
2019-02-15T01:41:50.618Z,91.20
2019-02-15T01:44:18.600Z,91.10
2019-02-15T01:46:46.560Z,91.00
2019-02-15T01:49:12.571Z,91.30
2019-02-15T01:51:38.598Z,91.10
2019-02-15T01:54:04.623Z,90.90
2019-02-15T01:56:30.654Z,91.00
2019-02-15T01:58:56.691Z,90.90
2019-02-15T02:01:23.710Z,90.90
2019-02-15T02:03:50.015Z,90.90
2019-02-15T02:06:16.035Z,90.90
2019-02-15T02:08:42.059Z,90.90
2019-02-15T02:11:08.080Z,91.20
2019-02-15T02:13:34.128Z,91.20
2019-02-15T02:16:00.204Z,91.30
2019-02-15T02:18:26.283Z,91.30
2019-02-15T02:20:52.299Z,91.30
2019-02-15T02:23:18.431Z,91.20
2019-02-15T02:25:44.569Z,91.30
2019-02-15T02:28:10.603Z,91.50
2019-02-15T02:30:37.787Z,91.50
2019-02-15T02:33:03.841Z,91.70
2019-02-15T02:35:29.860Z,91.70
2019-02-15T02:37:55.915Z,91.70
2019-02-15T02:40:22.016Z,91.60
2019-02-15T02:42:48.047Z,91.80
2019-02-15T02:45:14.072Z,92.10
2019-02-15T02:47:40.104Z,92.00
2019-02-15T02:50:07.192Z,92.00
2019-02-15T02:52:33.223Z,91.80
2019-02-15T02:54:59.282Z,91.90
2019-02-15T02:57:25.372Z,91.90
2019-02-15T02:59:51.487Z,92.00
2019-02-15T03:02:17.499Z,92.00
2019-02-15T03:04:43.531Z,92.00
2019-02-15T03:07:09.545Z,91.90
2019-02-15T03:09:35.585Z,92.00
2019-02-15T03:12:01.595Z,92.20
2019-02-15T03:14:27.632Z,92.10
2019-02-15T03:16:53.639Z,92.40
2019-02-15T03:19:19.667Z,92.30
2019-02-15T03:21:45.688Z,92.40
2019-02-15T03:24:11.750Z,92.50
2019-02-15T03:26:37.767Z,92.60
2019-02-15T03:29:03.807Z,92.70
2019-02-15T03:31:29.833Z,92.80
2019-02-15T03:33:55.968Z,92.80
2019-02-15T03:36:29.870Z,92.90
2019-02-15T03:39:16.167Z,92.90
2019-02-15T03:41:42.193Z,93.00
2019-02-15T03:44:08.218Z,93.10
2019-02-15T03:46:34.324Z,93.10
2019-02-15T03:49:00.368Z,93.30
2019-02-15T03:51:26.476Z,93.10
2019-02-15T03:53:52.512Z,93.20
2019-02-15T03:56:18.523Z,93.20
2019-02-15T03:58:45.059Z,93.10
2019-02-15T04:01:11.077Z,93.10
2019-02-15T04:03:37.209Z,93.10
2019-02-15T04:06:03.235Z,92.90
2019-02-15T04:08:29.263Z,92.90
2019-02-15T04:10:55.297Z,92.80
2019-02-15T04:13:21.306Z,92.80
2019-02-15T04:15:47.561Z,92.90
2019-02-15T04:18:13.568Z,92.90
2019-02-15T04:20:39.609Z,92.90
2019-02-15T04:23:05.628Z,93.00
2019-02-15T04:25:31.656Z,93.00
2019-02-15T04:27:57.670Z,93.10
2019-02-15T04:30:23.699Z,93.20
2019-02-15T04:32:49.713Z,93.10
2019-02-15T04:35:15.762Z,93.60
2019-02-15T04:37:41.771Z,93.30
2019-02-15T04:40:08.181Z,93.30
2019-02-15T04:42:34.230Z,93.40
2019-02-15T04:45:00.420Z,93.60
2019-02-15T04:47:26.484Z,93.70
2019-02-15T04:49:52.691Z,93.50
2019-02-15T04:52:18.696Z,93.50
2019-02-15T04:54:44.754Z,93.50
2019-02-15T04:57:10.795Z,93.40
2019-02-15T04:59:36.834Z,93.60
2019-02-15T05:02:02.851Z,93.70
2019-02-15T05:04:51.475Z,93.80
2019-02-15T05:07:17.640Z,93.80
2019-02-15T05:09:43.738Z,93.80
2019-02-15T05:12:09.751Z,93.60
2019-02-15T05:14:35.787Z,93.60
2019-02-15T05:17:01.802Z,93.70
2019-02-15T05:19:27.828Z,93.70
2019-02-15T05:21:53.951Z,93.60
2019-02-15T05:24:21.259Z,93.60
2019-02-15T05:26:47.962Z,93.60
2019-02-15T05:29:15.397Z,93.50
2019-02-15T05:31:41.408Z,93.60
2019-02-15T05:34:07.423Z,93.60
2019-02-15T05:36:33.455Z,93.60
2019-02-15T05:38:59.471Z,93.50
2019-02-15T05:41:25.503Z,93.40
2019-02-15T05:43:51.516Z,93.40
2019-02-15T05:46:17.548Z,93.40
2019-02-15T05:48:43.572Z,93.50
2019-02-15T05:51:11.583Z,93.50
2019-02-15T05:53:37.599Z,93.40
2019-02-15T05:56:03.636Z,93.20
2019-02-15T05:58:29.643Z,93.30
2019-02-15T06:00:55.680Z,93.40
2019-02-15T06:03:21.692Z,93.70
2019-02-15T06:05:47.735Z,93.70
2019-02-15T06:08:13.751Z,93.80
2019-02-15T06:10:39.783Z,93.90
2019-02-15T06:13:05.800Z,93.90
2019-02-15T06:15:31.869Z,93.80
2019-02-15T06:17:57.883Z,94.10
2019-02-15T06:20:43.906Z,93.70
2019-02-15T06:23:10.060Z,93.60
2019-02-15T06:25:36.234Z,93.60
2019-02-15T06:28:02.349Z,93.60
2019-02-15T06:30:28.394Z,93.30
2019-02-15T06:32:54.403Z,93.50
2019-02-15T06:35:20.444Z,93.40
2019-02-15T06:37:46.459Z,93.30
2019-02-15T06:40:12.499Z,93.40
2019-02-15T06:42:38.511Z,92.90
2019-02-15T06:45:05.367Z,93.00
2019-02-15T06:47:31.376Z,92.70
2019-02-15T06:49:57.412Z,92.40
2019-02-15T06:52:23.427Z,92.00
2019-02-15T06:54:49.478Z,92.20
2019-02-15T06:57:15.487Z,92.40
2019-02-15T06:59:49.269Z,92.40
2019-02-15T07:02:17.199Z,92.30
2019-02-15T07:04:50.673Z,92.50
2019-02-15T07:07:16.748Z,92.00
2019-02-15T07:09:42.753Z,92.10
2019-02-15T07:12:08.816Z,91.80
2019-02-15T07:14:34.815Z,91.90
2019-02-15T07:17:02.024Z,92.00
2019-02-15T07:19:28.036Z,91.80
2019-02-15T07:21:54.069Z,91.90
2019-02-15T07:24:20.083Z,91.80
2019-02-15T07:26:46.124Z,91.80
2019-02-15T07:29:12.135Z,91.80
2019-02-15T07:31:38.164Z,91.60
2019-02-15T07:34:04.178Z,91.60
2019-02-15T07:36:30.222Z,91.30
2019-02-15T07:38:56.242Z,91.30
2019-02-15T07:41:22.299Z,90.70
2019-02-15T07:43:48.307Z,90.50
2019-02-15T07:46:14.339Z,90.20
2019-02-15T07:48:40.366Z,90.20
2019-02-15T07:51:09.631Z,90.10
2019-02-15T07:53:34.315Z,89.70
2019-02-15T07:56:00.371Z,89.40
2019-02-15T07:58:26.393Z,88.90
2019-02-15T08:00:52.427Z,88.30
2019-02-15T08:03:18.441Z,88.20
2019-02-15T08:05:44.777Z,87.50
2019-02-15T08:08:10.792Z,87.20
2019-02-15T08:10:36.820Z,86.50
2019-02-15T08:13:02.845Z,85.30
2019-02-15T08:15:35.928Z,84.80
2019-02-15T08:17:56.798Z,84.10
2019-02-15T08:20:22.813Z,83.80
2019-02-15T08:22:48.840Z,83.20
2019-02-15T08:25:14.939Z,82.80
2019-02-15T08:27:40.983Z,82.10
2019-02-15T08:30:09.305Z,82.70
2019-02-15T08:32:35.355Z,81.40
2019-02-15T08:35:01.388Z,80.80
2019-02-15T08:37:27.416Z,80.60
2019-02-15T08:39:53.435Z,79.50
2019-02-15T08:42:19.458Z,79.50
2019-02-15T08:44:45.467Z,78.90
2019-02-15T08:47:11.499Z,78.70
2019-02-15T08:49:37.516Z,78.50
2019-02-15T08:52:03.651Z,77.60
2019-02-15T08:54:29.667Z,77.70
2019-02-15T08:56:55.703Z,76.80
2019-02-15T08:59:21.711Z,76.30
2019-02-15T09:01:49.648Z,75.60
2019-02-15T09:04:15.657Z,75.20
2019-02-15T09:06:41.691Z,75.70
2019-02-15T09:09:07.805Z,75.60
2019-02-15T09:11:33.836Z,75.40
2019-02-15T09:13:59.875Z,74.80
2019-02-15T09:16:25.963Z,73.90
2019-02-15T09:18:51.963Z,73.70
2019-02-15T09:21:17.975Z,73.70
2019-02-15T09:23:44.007Z,73.80
2019-02-15T09:26:17.992Z,72.40
2019-02-15T09:28:39.901Z,72.70
2019-02-15T09:31:05.920Z,71.20
2019-02-15T09:33:32.055Z,71.10
2019-02-15T09:35:58.092Z,69.50
2019-02-15T09:38:24.119Z,69.20
2019-02-15T09:40:50.211Z,68.80
2019-02-15T09:43:16.308Z,68.90
2019-02-15T09:45:42.326Z,68.80
2019-02-15T09:48:08.359Z,68.60
2019-02-15T09:50:34.366Z,67.60
2019-02-15T09:53:01.137Z,67.00
2019-02-15T09:55:27.223Z,66.40
2019-02-15T09:57:53.259Z,65.50
2019-02-15T10:00:19.274Z,66.10
2019-02-15T10:02:45.304Z,64.80
2019-02-15T10:05:11.339Z,64.10
2019-02-15T10:07:37.375Z,64.20
2019-02-15T10:10:06.511Z,63.90
2019-02-15T10:12:32.521Z,63.80
2019-02-15T10:14:58.567Z,64.50
2019-02-15T10:17:24.580Z,63.60
2019-02-15T10:19:50.611Z,63.20
2019-02-15T10:22:16.712Z,61.30
2019-02-15T10:24:42.727Z,61.50
2019-02-15T10:27:08.764Z,61.80
2019-02-15T10:29:34.797Z,60.00
2019-02-15T10:32:01.213Z,59.30
2019-02-15T10:34:27.230Z,58.80
2019-02-15T10:36:53.266Z,59.50
2019-02-15T10:39:19.285Z,59.50
2019-02-15T10:41:45.311Z,60.70
2019-02-15T10:44:11.323Z,59.80
2019-02-15T10:46:38.040Z,59.10
2019-02-15T10:49:04.264Z,59.80
2019-02-15T10:51:30.294Z,59.50
2019-02-15T10:53:56.375Z,59.10
2019-02-15T10:56:22.403Z,58.10
2019-02-15T10:58:48.419Z,57.50
2019-02-15T11:01:14.452Z,56.60
2019-02-15T11:03:40.475Z,56.40
2019-02-15T11:06:06.554Z,56.40
2019-02-15T11:08:32.650Z,55.80
2019-02-15T11:10:58.679Z,55.90
2019-02-15T11:13:24.691Z,55.70
2019-02-15T11:15:50.723Z,54.80
2019-02-15T11:18:16.754Z,54.20
2019-02-15T11:20:42.784Z,53.60
2019-02-15T11:23:08.799Z,54.00
2019-02-15T11:25:34.832Z,53.90
2019-02-15T11:28:00.847Z,54.40
2019-02-15T11:30:26.959Z,53.10
2019-02-15T11:32:52.996Z,53.90
2019-02-15T11:35:19.005Z,53.00
2019-02-15T11:37:45.035Z,53.50
2019-02-15T11:40:12.652Z,53.30
2019-02-15T11:42:38.775Z,53.20
2019-02-15T11:45:12.370Z,51.80
2019-02-15T11:47:38.387Z,52.20
2019-02-15T11:50:07.515Z,52.50
2019-02-15T11:52:33.563Z,51.70
2019-02-15T11:54:59.575Z,52.70
2019-02-15T11:57:25.605Z,52.40
2019-02-15T11:59:51.615Z,50.80
2019-02-15T12:02:17.654Z,51.00
2019-02-15T12:04:43.664Z,51.10
2019-02-15T12:07:09.744Z,50.90
2019-02-15T12:09:35.751Z,50.70
2019-02-15T12:12:10.113Z,51.70
2019-02-15T12:14:29.695Z,51.30
2019-02-15T12:16:55.775Z,50.80
2019-02-15T12:19:21.791Z,50.10
2019-02-15T12:21:48.039Z,50.00
2019-02-15T12:24:14.163Z,49.20
2019-02-15T12:26:40.201Z,49.20
2019-02-15T12:29:06.348Z,49.30
2019-02-15T12:31:32.427Z,49.20
2019-02-15T12:33:58.447Z,49.40
2019-02-15T12:36:24.478Z,48.70
2019-02-15T12:38:50.499Z,49.30
2019-02-15T12:41:16.610Z,48.70
2019-02-15T12:43:42.659Z,49.20
2019-02-15T12:46:08.671Z,48.70
2019-02-15T12:48:34.719Z,47.70
2019-02-15T12:51:00.789Z,46.60
2019-02-15T12:53:26.819Z,46.80
2019-02-15T12:55:52.873Z,46.20
2019-02-15T12:58:18.895Z,46.70
2019-02-15T13:00:44.911Z,46.60
2019-02-15T13:03:10.955Z,47.80
2019-02-15T13:05:36.976Z,47.70
2019-02-15T13:08:03.104Z,47.50
2019-02-15T13:10:31.019Z,47.70
2019-02-15T13:12:57.132Z,46.90
2019-02-15T13:15:23.904Z,47.80
2019-02-15T13:17:49.963Z,46.90
2019-02-15T13:20:16.016Z,48.00
2019-02-15T13:22:42.052Z,48.70
2019-02-15T13:25:08.268Z,47.60
2019-02-15T13:27:34.330Z,48.00
2019-02-15T13:30:00.377Z,46.80
2019-02-15T13:32:26.497Z,47.00
2019-02-15T13:34:52.511Z,47.30
2019-02-15T13:37:18.551Z,47.00
2019-02-15T13:39:44.587Z,48.20
2019-02-15T13:42:10.627Z,47.30
2019-02-15T13:44:36.667Z,46.60
2019-02-15T13:47:02.764Z,46.80
2019-02-15T13:49:28.840Z,46.70
2019-02-15T13:51:54.862Z,47.10
2019-02-15T13:54:20.920Z,47.10
2019-02-15T13:56:46.925Z,47.40
2019-02-15T13:59:12.975Z,47.50
2019-02-15T14:01:38.991Z,47.10
2019-02-15T14:04:05.028Z,46.10
2019-02-15T14:06:31.046Z,47.50
2019-02-15T14:08:57.112Z,47.50
2019-02-15T14:11:23.123Z,47.10
2019-02-15T14:13:49.167Z,47.00
2019-02-15T14:16:15.183Z,47.50
2019-02-15T14:18:41.332Z,46.70
2019-02-15T14:21:07.344Z,47.20
2019-02-15T14:23:33.400Z,47.50
2019-02-15T14:25:59.419Z,47.10
2019-02-15T14:28:25.460Z,47.60
2019-02-15T14:30:51.491Z,48.50
2019-02-15T14:33:17.603Z,47.40
2019-02-15T14:35:43.622Z,46.60
2019-02-15T14:38:09.631Z,45.40
2019-02-15T14:40:35.663Z,46.30
2019-02-15T14:43:01.714Z,46.50
2019-02-15T14:45:27.723Z,46.20
2019-02-15T14:47:55.236Z,45.50
2019-02-15T14:50:21.524Z,45.50
2019-02-15T14:52:47.535Z,46.20
2019-02-15T14:55:14.555Z,46.70
2019-02-15T14:57:40.579Z,47.80
2019-02-15T15:00:10.429Z,48.80
2019-02-15T15:02:36.500Z,47.90
2019-02-15T15:05:03.739Z,47.10
2019-02-15T15:07:29.751Z,47.40
2019-02-15T15:09:55.787Z,47.00
2019-02-15T15:12:21.796Z,47.60
2019-02-15T15:14:47.838Z,47.70
2019-02-15T15:17:13.851Z,47.40
2019-02-15T15:19:39.917Z,48.10
2019-02-15T15:22:05.971Z,48.30
2019-02-15T15:24:32.012Z,47.80
2019-02-15T15:26:58.026Z,49.00
2019-02-15T15:29:24.078Z,49.10
2019-02-15T15:31:50.095Z,49.10
2019-02-15T15:34:16.143Z,49.30
2019-02-15T15:36:42.165Z,50.40
2019-02-15T15:39:08.195Z,50.10
2019-02-15T15:41:34.231Z,49.70
2019-02-15T15:44:00.264Z,50.50
2019-02-15T15:46:26.285Z,50.00
2019-02-15T15:48:52.322Z,50.50
2019-02-15T15:51:18.395Z,50.90
2019-02-15T15:53:44.483Z,50.50
2019-02-15T15:56:10.501Z,51.20
2019-02-15T15:58:36.539Z,51.60
2019-02-15T16:01:02.650Z,51.20
2019-02-15T16:03:28.667Z,51.80
2019-02-15T16:05:54.791Z,52.00
2019-02-15T16:08:20.804Z,52.80
2019-02-15T16:10:47.110Z,53.20
2019-02-15T16:13:13.255Z,53.70
2019-02-15T16:15:39.328Z,54.00
2019-02-15T16:18:05.379Z,53.70
2019-02-15T16:20:31.412Z,54.70
2019-02-15T16:22:57.424Z,54.90
2019-02-15T16:25:23.483Z,55.60
2019-02-15T16:27:49.491Z,56.00
2019-02-15T16:30:15.724Z,56.20
2019-02-15T16:32:41.740Z,57.00
2019-02-15T16:35:08.275Z,57.20
2019-02-15T16:37:34.291Z,57.90
2019-02-15T16:40:00.368Z,58.20
2019-02-15T16:42:26.447Z,58.50
2019-02-15T16:44:52.571Z,58.80
2019-02-15T16:47:18.597Z,59.40
2019-02-15T16:49:44.624Z,59.70
2019-02-15T16:52:10.656Z,60.20
2019-02-15T16:54:36.760Z,61.50
2019-02-15T16:57:02.788Z,61.30
2019-02-15T16:59:28.823Z,62.20
2019-02-15T17:01:54.852Z,62.70
2019-02-15T17:04:20.867Z,62.90
2019-02-15T17:06:47.748Z,63.90
2019-02-15T17:09:16.893Z,63.40
2019-02-15T17:11:42.941Z,64.40
2019-02-15T17:14:09.151Z,64.70
2019-02-15T17:16:35.826Z,64.80
2019-02-15T17:19:02.307Z,66.90
2019-02-15T17:21:28.416Z,66.50
2019-02-15T17:23:54.428Z,67.50
2019-02-15T17:26:20.464Z,68.00
2019-02-15T17:28:46.567Z,68.10
2019-02-15T17:31:12.615Z,68.00
2019-02-15T17:33:38.623Z,68.30
2019-02-15T17:36:04.663Z,68.70
2019-02-15T17:38:30.676Z,69.10
2019-02-15T17:40:56.811Z,69.20
2019-02-15T17:43:22.828Z,69.30
2019-02-15T17:45:48.868Z,69.20
2019-02-15T17:48:14.884Z,71.90
2019-02-15T17:50:40.923Z,73.60
2019-02-15T17:53:06.943Z,74.10
2019-02-15T17:55:32.979Z,76.30
2019-02-15T17:57:59.032Z,77.30
2019-02-15T18:00:26.991Z,78.00
2019-02-15T18:02:52.992Z,80.10
2019-02-15T18:05:19.037Z,80.70
2019-02-15T18:07:47.249Z,81.40
2019-02-15T18:10:13.275Z,82.00
2019-02-15T18:12:39.316Z,82.20
2019-02-15T18:15:05.395Z,83.10
2019-02-15T18:17:31.431Z,83.50
2019-02-15T18:19:57.453Z,83.60
2019-02-15T18:22:23.504Z,83.80
2019-02-15T18:24:49.537Z,83.90
2019-02-15T18:27:15.575Z,83.90
2019-02-15T18:29:41.596Z,84.00
2019-02-15T18:32:07.639Z,84.10
2019-02-15T18:34:33.654Z,84.50
2019-02-15T18:37:00.055Z,84.70
2019-02-15T18:39:26.124Z,83.50
2019-02-15T18:41:52.163Z,83.90
2019-02-15T18:44:18.196Z,82.20
2019-02-15T18:46:44.232Z,83.50
2019-02-15T18:49:18.989Z,82.70
2019-02-15T18:51:38.248Z,82.40
2019-02-15T18:54:04.272Z,83.10
2019-02-15T18:56:31.363Z,84.20
2019-02-15T18:58:57.383Z,83.60
2019-02-15T19:01:23.487Z,85.10
2019-02-15T19:03:49.504Z,83.90
2019-02-15T19:06:15.547Z,84.90
2019-02-15T19:08:41.555Z,85.00
2019-02-15T19:11:07.683Z,84.70
2019-02-15T19:13:33.723Z,85.10
2019-02-15T19:15:59.763Z,85.20
2019-02-15T19:18:25.794Z,85.20
2019-02-15T19:20:51.921Z,85.50
2019-02-15T19:23:17.926Z,85.90
2019-02-15T19:25:43.946Z,85.90
2019-02-15T19:28:10.036Z,86.00
2019-02-15T19:30:36.053Z,86.30
2019-02-15T19:33:02.095Z,86.70
2019-02-15T19:35:28.139Z,86.80
2019-02-15T19:37:54.239Z,87.70
2019-02-15T19:40:20.255Z,87.90
2019-02-15T19:42:48.608Z,88.40
2019-02-15T19:45:14.725Z,88.70
2019-02-15T19:47:40.759Z,88.50
2019-02-15T19:50:09.687Z,88.40
2019-02-15T19:52:35.724Z,88.70
2019-02-15T19:55:02.604Z,89.20
2019-02-15T19:57:28.646Z,89.40
2019-02-15T19:59:54.660Z,89.60
2019-02-15T20:02:21.777Z,89.80
2019-02-15T20:04:47.903Z,90.00
2019-02-15T20:07:13.937Z,89.50
2019-02-15T20:09:40.062Z,90.00
2019-02-15T20:12:06.103Z,90.10
2019-02-15T20:14:32.145Z,90.10
2019-02-15T20:16:58.160Z,90.00
2019-02-15T20:19:24.168Z,90.10
2019-02-15T20:21:50.239Z,90.20
2019-02-15T20:24:16.316Z,90.20
2019-02-15T20:26:42.385Z,90.30
2019-02-15T20:29:08.399Z,90.50
2019-02-15T20:31:34.434Z,90.60
2019-02-15T20:34:00.478Z,90.70
2019-02-15T20:36:26.511Z,90.80
2019-02-15T20:38:52.535Z,90.70
2019-02-15T20:41:18.576Z,90.70
2019-02-15T20:43:44.607Z,90.80
2019-02-15T20:46:10.615Z,90.80
2019-02-15T20:48:36.661Z,90.70
2019-02-15T20:51:02.667Z,90.70
2019-02-15T20:53:28.711Z,90.70
2019-02-15T20:55:54.746Z,90.80
2019-02-15T20:58:20.795Z,90.70
2019-02-15T21:00:47.089Z,90.90
2019-02-15T21:03:13.247Z,90.80
2019-02-15T21:05:39.264Z,90.90
2019-02-15T21:08:05.313Z,91.00
2019-02-15T21:10:31.325Z,91.20
2019-02-15T21:12:57.368Z,92.20
2019-02-15T21:15:24.290Z,91.20
2019-02-15T21:17:50.663Z,91.30
2019-02-15T21:20:16.671Z,91.10
2019-02-15T21:22:42.709Z,91.20
2019-02-15T21:25:10.624Z,91.20
2019-02-15T21:27:36.664Z,91.20
2019-02-15T21:30:06.371Z,91.30
2019-02-15T21:32:34.573Z,91.40
2019-02-15T21:35:00.656Z,91.60
2019-02-15T21:37:26.708Z,91.60
2019-02-15T21:39:52.712Z,91.60
2019-02-15T21:42:18.765Z,91.70
2019-02-15T21:44:44.783Z,91.80
2019-02-15T21:47:10.843Z,91.80
2019-02-15T21:49:38.487Z,91.70
2019-02-15T21:52:04.800Z,91.80
2019-02-15T21:54:30.815Z,91.90
2019-02-15T21:56:56.823Z,91.90
2019-02-15T21:59:22.859Z,92.10
2019-02-15T22:01:48.920Z,92.00
2019-02-15T22:04:14.956Z,92.10
2019-02-15T22:06:40.980Z,92.30
2019-02-15T22:09:07.115Z,92.20
2019-02-15T22:11:33.127Z,92.10
2019-02-15T22:13:59.255Z,92.20
2019-02-15T22:16:25.269Z,92.20
2019-02-15T22:18:51.320Z,92.20
2019-02-15T22:21:17.351Z,92.00
2019-02-15T22:23:43.386Z,92.00
2019-02-15T22:26:09.397Z,92.10
2019-02-15T22:28:35.441Z,92.10
2019-02-15T22:31:01.512Z,92.10
2019-02-15T22:33:27.577Z,92.10
2019-02-15T22:35:53.633Z,92.20
2019-02-15T22:38:19.671Z,92.00
2019-02-15T22:40:45.783Z,92.10
2019-02-15T22:43:33.632Z,92.30
2019-02-15T22:45:59.648Z,92.20
2019-02-15T22:48:25.678Z,92.40
2019-02-15T22:50:51.687Z,92.40
2019-02-15T22:53:17.727Z,92.40
2019-02-15T22:55:43.761Z,92.40
2019-02-15T22:58:09.783Z,92.50
2019-02-15T23:00:52.516Z,93.00
2019-02-15T23:03:23.424Z,92.50
2019-02-15T23:05:49.541Z,92.40
2019-02-15T23:08:15.568Z,92.50
2019-02-15T23:10:41.595Z,92.50
2019-02-15T23:13:07.728Z,92.40
2019-02-15T23:15:33.739Z,92.50
2019-02-15T23:17:59.792Z,92.60
2019-02-15T23:20:25.807Z,92.80
2019-02-15T23:22:51.831Z,92.80
2019-02-15T23:25:17.868Z,92.90
2019-02-15T23:27:43.936Z,93.20
2019-02-15T23:30:09.950Z,93.10
2019-02-15T23:32:36.052Z,92.90
2019-02-15T23:35:02.551Z,92.70
2019-02-15T23:37:28.566Z,92.70
2019-02-15T23:39:54.588Z,92.70
2019-02-15T23:42:20.613Z,92.70
2019-02-15T23:44:46.645Z,93.00
2019-02-15T23:47:12.653Z,93.10
2019-02-15T23:49:38.688Z,93.20
2019-02-15T23:52:04.695Z,93.20
2019-02-15T23:54:30.736Z,93.00
2019-02-15T23:56:56.743Z,93.20
2019-02-15T23:59:22.775Z,93.20
